sensor_id;sensor_type;location;lat;lon;timestamp;P1;durP1;ratioP1;P2;durP2;ratioP2
7783;SDS011;19359;51.402;6.778;2023-07-13T00:00:43;783.58;;;482.27;;
7783;SDS011;19359;51.402;6.778;2023-07-13T00:03:12;776.22;;;482.90;;
7783;SDS011;19359;51.402;6.778;2023-07-13T00:05:39;776.20;;;480.30;;
7783;SDS011;19359;51.402;6.778;2023-07-13T00:08:06;782.80;;;478.20;;
7783;SDS011;19359;51.402;6.778;2023-07-13T00:10:38;782.35;;;471.10;;
7783;SDS011;19359;51.402;6.778;2023-07-13T00:13:05;784.47;;;477.80;;
7783;SDS011;19359;51.402;6.778;2023-07-13T00:15:33;774.50;;;467.17;;
7783;SDS011;19359;51.402;6.778;2023-07-13T00:18:00;773.55;;;463.20;;
7783;SDS011;19359;51.402;6.778;2023-07-13T00:20:29;793.83;;;482.55;;
7783;SDS011;19359;51.402;6.778;2023-07-13T00:22:57;770.42;;;457.23;;
7783;SDS011;19359;51.402;6.778;2023-07-13T00:25:24;782.55;;;471.63;;
7783;SDS011;19359;51.402;6.778;2023-07-13T00:27:53;778.78;;;467.35;;
7783;SDS011;19359;51.402;6.778;2023-07-13T00:30:20;782.83;;;467.08;;
7783;SDS011;19359;51.402;6.778;2023-07-13T00:32:48;770.33;;;451.67;;
7783;SDS011;19359;51.402;6.778;2023-07-13T00:35:15;774.88;;;464.90;;
7783;SDS011;19359;51.402;6.778;2023-07-13T00:37:44;771.60;;;459.92;;
7783;SDS011;19359;51.402;6.778;2023-07-13T00:40:11;774.67;;;460.52;;
7783;SDS011;19359;51.402;6.778;2023-07-13T00:42:39;773.80;;;470.25;;
7783;SDS011;19359;51.402;6.778;2023-07-13T00:46:07;785.53;;;466.77;;
7783;SDS011;19359;51.402;6.778;2023-07-13T00:48:15;773.25;;;463.48;;
7783;SDS011;19359;51.402;6.778;2023-07-13T00:50:45;783.75;;;459.45;;
7783;SDS011;19359;51.402;6.778;2023-07-13T00:53:15;778.28;;;455.23;;
7783;SDS011;19359;51.402;6.778;2023-07-13T00:55:43;768.90;;;447.40;;
7783;SDS011;19359;51.402;6.778;2023-07-13T00:58:10;771.55;;;455.60;;
7783;SDS011;19359;51.402;6.778;2023-07-13T01:00:38;775.92;;;447.38;;
7783;SDS011;19359;51.402;6.778;2023-07-13T01:03:05;771.47;;;450.98;;
7783;SDS011;19359;51.402;6.778;2023-07-13T01:05:34;781.58;;;461.67;;
7783;SDS011;19359;51.402;6.778;2023-07-13T01:08:02;768.38;;;442.80;;
7783;SDS011;19359;51.402;6.778;2023-07-13T01:10:30;775.55;;;450.83;;
7783;SDS011;19359;51.402;6.778;2023-07-13T01:13:03;767.28;;;439.02;;
7783;SDS011;19359;51.402;6.778;2023-07-13T01:15:34;794.60;;;462.98;;
7783;SDS011;19359;51.402;6.778;2023-07-13T01:18:02;771.55;;;447.38;;
7783;SDS011;19359;51.402;6.778;2023-07-13T01:20:29;780.65;;;441.98;;
7783;SDS011;19359;51.402;6.778;2023-07-13T01:23:02;767.80;;;436.27;;
7783;SDS011;19359;51.402;6.778;2023-07-13T01:25:29;774.17;;;434.23;;
7783;SDS011;19359;51.402;6.778;2023-07-13T01:27:56;768.13;;;435.67;;
7783;SDS011;19359;51.402;6.778;2023-07-13T01:30:24;773.88;;;440.00;;
7783;SDS011;19359;51.402;6.778;2023-07-13T01:32:51;765.78;;;426.95;;
7783;SDS011;19359;51.402;6.778;2023-07-13T01:35:18;771.88;;;431.50;;
7783;SDS011;19359;51.402;6.778;2023-07-13T01:37:45;768.70;;;429.77;;
7783;SDS011;19359;51.402;6.778;2023-07-13T01:40:14;764.75;;;425.35;;
7783;SDS011;19359;51.402;6.778;2023-07-13T01:42:42;763.63;;;410.90;;
7783;SDS011;19359;51.402;6.778;2023-07-13T01:45:09;773.63;;;426.77;;
7783;SDS011;19359;51.402;6.778;2023-07-13T01:47:37;777.00;;;422.35;;
7783;SDS011;19359;51.402;6.778;2023-07-13T01:50:04;767.60;;;415.00;;
7783;SDS011;19359;51.402;6.778;2023-07-13T01:52:31;768.45;;;424.65;;
7783;SDS011;19359;51.402;6.778;2023-07-13T01:54:58;765.65;;;410.10;;
7783;SDS011;19359;51.402;6.778;2023-07-13T01:57:27;761.33;;;407.77;;
7783;SDS011;19359;51.402;6.778;2023-07-13T01:59:54;763.22;;;403.17;;
7783;SDS011;19359;51.402;6.778;2023-07-13T02:02:22;761.17;;;411.10;;
7783;SDS011;19359;51.402;6.778;2023-07-13T02:04:49;759.30;;;405.50;;
7783;SDS011;19359;51.402;6.778;2023-07-13T02:07:16;756.65;;;399.60;;
7783;SDS011;19359;51.402;6.778;2023-07-13T02:09:43;763.45;;;400.13;;
7783;SDS011;19359;51.402;6.778;2023-07-13T02:12:10;726.95;;;465.63;;
7783;SDS011;19359;51.402;6.778;2023-07-13T02:14:38;693.67;;;466.05;;
7783;SDS011;19359;51.402;6.778;2023-07-13T02:17:06;670.55;;;451.15;;
7783;SDS011;19359;51.402;6.778;2023-07-13T02:19:33;744.30;;;442.52;;
7783;SDS011;19359;51.402;6.778;2023-07-13T02:22:00;674.88;;;444.65;;
7783;SDS011;19359;51.402;6.778;2023-07-13T02:24:27;765.33;;;397.48;;
7783;SDS011;19359;51.402;6.778;2023-07-13T02:26:54;768.65;;;400.33;;
7783;SDS011;19359;51.402;6.778;2023-07-13T02:29:21;757.05;;;393.17;;
7783;SDS011;19359;51.402;6.778;2023-07-13T02:31:50;762.20;;;389.67;;
7783;SDS011;19359;51.402;6.778;2023-07-13T02:34:16;775.47;;;398.60;;
7783;SDS011;19359;51.402;6.778;2023-07-13T02:36:43;754.30;;;381.67;;
7783;SDS011;19359;51.402;6.778;2023-07-13T02:39:11;755.65;;;378.48;;
7783;SDS011;19359;51.402;6.778;2023-07-13T02:41:38;755.72;;;373.35;;
7783;SDS011;19359;51.402;6.778;2023-07-13T02:44:06;763.38;;;394.02;;
7783;SDS011;19359;51.402;6.778;2023-07-13T02:46:34;755.55;;;389.17;;
7783;SDS011;19359;51.402;6.778;2023-07-13T02:49:03;766.60;;;397.02;;
7783;SDS011;19359;51.402;6.778;2023-07-13T02:51:30;756.15;;;388.27;;
7783;SDS011;19359;51.402;6.778;2023-07-13T02:53:59;756.38;;;386.25;;
7783;SDS011;19359;51.402;6.778;2023-07-13T02:56:27;766.13;;;393.85;;
7783;SDS011;19359;51.402;6.778;2023-07-13T02:58:55;754.65;;;384.00;;
7783;SDS011;19359;51.402;6.778;2023-07-13T03:01:23;764.47;;;382.10;;
7783;SDS011;19359;51.402;6.778;2023-07-13T03:03:50;752.85;;;372.13;;
7783;SDS011;19359;51.402;6.778;2023-07-13T03:06:19;756.65;;;374.83;;
7783;SDS011;19359;51.402;6.778;2023-07-13T03:08:47;756.63;;;373.17;;
7783;SDS011;19359;51.402;6.778;2023-07-13T03:11:16;747.95;;;364.80;;
7783;SDS011;19359;51.402;6.778;2023-07-13T03:13:46;756.72;;;379.35;;
7783;SDS011;19359;51.402;6.778;2023-07-13T03:16:14;751.63;;;369.58;;
7783;SDS011;19359;51.402;6.778;2023-07-13T03:18:41;776.25;;;385.98;;
7783;SDS011;19359;51.402;6.778;2023-07-13T03:21:09;747.08;;;364.98;;
7783;SDS011;19359;51.402;6.778;2023-07-13T03:23:38;780.70;;;393.02;;
7783;SDS011;19359;51.402;6.778;2023-07-13T03:26:05;747.00;;;357.35;;
7783;SDS011;19359;51.402;6.778;2023-07-13T03:28:33;774.15;;;384.65;;
7783;SDS011;19359;51.402;6.778;2023-07-13T03:31:01;755.83;;;370.38;;
7783;SDS011;19359;51.402;6.778;2023-07-13T03:33:29;762.38;;;363.40;;
7783;SDS011;19359;51.402;6.778;2023-07-13T03:35:56;764.35;;;377.48;;
7783;SDS011;19359;51.402;6.778;2023-07-13T03:38:24;668.38;;;407.88;;
7783;SDS011;19359;51.402;6.778;2023-07-13T03:40:53;650.97;;;420.63;;
7783;SDS011;19359;51.402;6.778;2023-07-13T03:43:20;647.88;;;413.15;;
7783;SDS011;19359;51.402;6.778;2023-07-13T03:45:47;640.63;;;416.60;;
7783;SDS011;19359;51.402;6.778;2023-07-13T03:48:15;641.58;;;417.70;;
7783;SDS011;19359;51.402;6.778;2023-07-13T03:50:42;618.50;;;410.23;;
7783;SDS011;19359;51.402;6.778;2023-07-13T03:53:09;611.80;;;412.23;;
7783;SDS011;19359;51.402;6.778;2023-07-13T03:55:37;620.58;;;416.48;;
7783;SDS011;19359;51.402;6.778;2023-07-13T04:00:47;624.55;;;419.77;;
7783;SDS011;19359;51.402;6.778;2023-07-13T04:03:15;588.60;;;408.50;;
7783;SDS011;19359;51.402;6.778;2023-07-13T04:05:42;583.45;;;410.63;;
7783;SDS011;19359;51.402;6.778;2023-07-13T04:08:10;598.38;;;416.30;;
7783;SDS011;19359;51.402;6.778;2023-07-13T04:10:37;611.63;;;413.42;;
7783;SDS011;19359;51.402;6.778;2023-07-13T04:13:04;627.92;;;425.58;;
7783;SDS011;19359;51.402;6.778;2023-07-13T04:15:31;630.85;;;412.85;;
7783;SDS011;19359;51.402;6.778;2023-07-13T04:18:00;638.55;;;426.67;;
7783;SDS011;19359;51.402;6.778;2023-07-13T04:20:28;629.45;;;430.70;;
7783;SDS011;19359;51.402;6.778;2023-07-13T04:22:55;629.63;;;429.23;;
7783;SDS011;19359;51.402;6.778;2023-07-13T04:25:23;627.17;;;428.58;;
7783;SDS011;19359;51.402;6.778;2023-07-13T04:27:50;638.28;;;431.30;;
7783;SDS011;19359;51.402;6.778;2023-07-13T04:30:18;644.03;;;426.30;;
7783;SDS011;19359;51.402;6.778;2023-07-13T04:32:45;634.00;;;432.38;;
7783;SDS011;19359;51.402;6.778;2023-07-13T04:35:13;640.45;;;433.88;;
7783;SDS011;19359;51.402;6.778;2023-07-13T04:37:40;622.38;;;440.48;;
7783;SDS011;19359;51.402;6.778;2023-07-13T04:40:08;642.65;;;440.50;;
7783;SDS011;19359;51.402;6.778;2023-07-13T04:42:37;641.20;;;434.20;;
7783;SDS011;19359;51.402;6.778;2023-07-13T04:45:05;654.20;;;446.30;;
7783;SDS011;19359;51.402;6.778;2023-07-13T04:47:32;655.60;;;437.95;;
7783;SDS011;19359;51.402;6.778;2023-07-13T04:49:59;669.35;;;447.23;;
7783;SDS011;19359;51.402;6.778;2023-07-13T04:52:28;666.28;;;443.83;;
7783;SDS011;19359;51.402;6.778;2023-07-13T04:54:55;669.78;;;453.23;;
7783;SDS011;19359;51.402;6.778;2023-07-13T04:57:23;656.25;;;449.20;;
7783;SDS011;19359;51.402;6.778;2023-07-13T04:59:51;659.75;;;442.40;;
7783;SDS011;19359;51.402;6.778;2023-07-13T05:02:19;658.47;;;454.92;;
7783;SDS011;19359;51.402;6.778;2023-07-13T05:04:47;661.47;;;449.45;;
7783;SDS011;19359;51.402;6.778;2023-07-13T05:07:14;672.50;;;444.70;;
7783;SDS011;19359;51.402;6.778;2023-07-13T05:09:42;687.70;;;452.17;;
7783;SDS011;19359;51.402;6.778;2023-07-13T05:12:09;688.92;;;442.90;;
7783;SDS011;19359;51.402;6.778;2023-07-13T05:14:36;688.92;;;451.08;;
7783;SDS011;19359;51.402;6.778;2023-07-13T05:17:04;751.97;;;393.35;;
7783;SDS011;19359;51.402;6.778;2023-07-13T05:19:31;758.55;;;401.45;;
7783;SDS011;19359;51.402;6.778;2023-07-13T05:21:58;752.22;;;393.85;;
7783;SDS011;19359;51.402;6.778;2023-07-13T05:24:25;755.35;;;396.58;;
7783;SDS011;19359;51.402;6.778;2023-07-13T05:26:53;766.47;;;405.15;;
7783;SDS011;19359;51.402;6.778;2023-07-13T05:29:20;758.58;;;396.67;;
7783;SDS011;19359;51.402;6.778;2023-07-13T05:31:47;758.60;;;401.27;;
7783;SDS011;19359;51.402;6.778;2023-07-13T05:34:15;755.80;;;392.88;;
7783;SDS011;19359;51.402;6.778;2023-07-13T05:36:42;755.92;;;390.80;;
7783;SDS011;19359;51.402;6.778;2023-07-13T05:39:09;765.15;;;406.98;;
7783;SDS011;19359;51.402;6.778;2023-07-13T05:41:37;764.78;;;412.90;;
7783;SDS011;19359;51.402;6.778;2023-07-13T05:44:05;767.80;;;420.13;;
7783;SDS011;19359;51.402;6.778;2023-07-13T05:46:32;759.92;;;408.25;;
7783;SDS011;19359;51.402;6.778;2023-07-13T05:48:59;766.97;;;419.15;;
7783;SDS011;19359;51.402;6.778;2023-07-13T05:51:28;763.28;;;418.50;;
7783;SDS011;19359;51.402;6.778;2023-07-13T05:53:55;792.05;;;437.95;;
7783;SDS011;19359;51.402;6.778;2023-07-13T05:56:21;763.13;;;427.35;;
7783;SDS011;19359;51.402;6.778;2023-07-13T05:58:50;783.17;;;433.60;;
7783;SDS011;19359;51.402;6.778;2023-07-13T06:01:18;766.33;;;431.00;;
7783;SDS011;19359;51.402;6.778;2023-07-13T06:03:45;789.67;;;438.67;;
7783;SDS011;19359;51.402;6.778;2023-07-13T06:06:13;764.58;;;416.15;;
7783;SDS011;19359;51.402;6.778;2023-07-13T06:08:39;766.92;;;425.48;;
7783;SDS011;19359;51.402;6.778;2023-07-13T06:11:07;763.92;;;432.63;;
7783;SDS011;19359;51.402;6.778;2023-07-13T06:13:40;778.72;;;443.80;;
7783;SDS011;19359;51.402;6.778;2023-07-13T06:16:07;769.55;;;431.90;;
7783;SDS011;19359;51.402;6.778;2023-07-13T06:18:36;768.80;;;435.80;;
7783;SDS011;19359;51.402;6.778;2023-07-13T06:21:07;771.03;;;434.55;;
7783;SDS011;19359;51.402;6.778;2023-07-13T06:23:34;769.50;;;445.83;;
7783;SDS011;19359;51.402;6.778;2023-07-13T06:26:02;779.25;;;459.42;;
7783;SDS011;19359;51.402;6.778;2023-07-13T06:28:29;767.85;;;449.52;;
7783;SDS011;19359;51.402;6.778;2023-07-13T06:30:56;781.25;;;455.85;;
7783;SDS011;19359;51.402;6.778;2023-07-13T06:33:23;766.70;;;439.10;;
7783;SDS011;19359;51.402;6.778;2023-07-13T06:35:52;774.22;;;450.05;;
7783;SDS011;19359;51.402;6.778;2023-07-13T06:38:19;774.88;;;450.13;;
7783;SDS011;19359;51.402;6.778;2023-07-13T06:40:46;766.72;;;445.48;;
7783;SDS011;19359;51.402;6.778;2023-07-13T06:43:13;777.75;;;453.67;;
7783;SDS011;19359;51.402;6.778;2023-07-13T06:45:43;770.83;;;443.23;;
7783;SDS011;19359;51.402;6.778;2023-07-13T06:48:10;795.85;;;478.70;;
7783;SDS011;19359;51.402;6.778;2023-07-13T06:50:37;788.92;;;470.52;;
7783;SDS011;19359;51.402;6.778;2023-07-13T06:53:05;781.05;;;468.73;;
7783;SDS011;19359;51.402;6.778;2023-07-13T06:55:32;786.65;;;467.85;;
7783;SDS011;19359;51.402;6.778;2023-07-13T06:57:59;775.85;;;463.15;;
7783;SDS011;19359;51.402;6.778;2023-07-13T07:00:26;817.45;;;488.10;;
7783;SDS011;19359;51.402;6.778;2023-07-13T07:02:53;768.30;;;438.48;;
7783;SDS011;19359;51.402;6.778;2023-07-13T07:05:21;777.67;;;451.83;;
7783;SDS011;19359;51.402;6.778;2023-07-13T07:07:49;783.42;;;461.35;;
7783;SDS011;19359;51.402;6.778;2023-07-13T07:10:17;779.95;;;454.77;;
7783;SDS011;19359;51.402;6.778;2023-07-13T07:12:45;774.92;;;450.17;;
7783;SDS011;19359;51.402;6.778;2023-07-13T07:15:11;776.72;;;451.70;;
7783;SDS011;19359;51.402;6.778;2023-07-13T07:17:39;767.63;;;434.77;;
7783;SDS011;19359;51.402;6.778;2023-07-13T07:20:06;765.78;;;440.98;;
7783;SDS011;19359;51.402;6.778;2023-07-13T07:22:33;768.90;;;445.45;;
7783;SDS011;19359;51.402;6.778;2023-07-13T07:25:00;782.33;;;460.40;;
7783;SDS011;19359;51.402;6.778;2023-07-13T07:27:29;772.10;;;448.10;;
7783;SDS011;19359;51.402;6.778;2023-07-13T07:29:56;779.58;;;458.77;;
7783;SDS011;19359;51.402;6.778;2023-07-13T07:32:23;774.50;;;465.48;;
7783;SDS011;19359;51.402;6.778;2023-07-13T07:34:50;775.85;;;459.70;;
7783;SDS011;19359;51.402;6.778;2023-07-13T07:37:17;771.50;;;453.85;;
7783;SDS011;19359;51.402;6.778;2023-07-13T07:39:44;769.78;;;460.23;;
7783;SDS011;19359;51.402;6.778;2023-07-13T07:42:11;772.15;;;462.38;;
7783;SDS011;19359;51.402;6.778;2023-07-13T07:44:39;773.95;;;466.20;;
7783;SDS011;19359;51.402;6.778;2023-07-13T07:47:07;791.78;;;486.35;;
7783;SDS011;19359;51.402;6.778;2023-07-13T07:49:34;778.40;;;474.13;;
7783;SDS011;19359;51.402;6.778;2023-07-13T07:52:01;793.90;;;476.35;;
7783;SDS011;19359;51.402;6.778;2023-07-13T07:54:28;774.47;;;469.55;;
7783;SDS011;19359;51.402;6.778;2023-07-13T07:56:55;787.85;;;489.90;;
7783;SDS011;19359;51.402;6.778;2023-07-13T07:59:22;784.38;;;481.13;;
7783;SDS011;19359;51.402;6.778;2023-07-13T08:01:50;781.83;;;506.60;;
7783;SDS011;19359;51.402;6.778;2023-07-13T08:04:17;791.95;;;504.15;;
7783;SDS011;19359;51.402;6.778;2023-07-13T08:06:44;783.90;;;516.63;;
7783;SDS011;19359;51.402;6.778;2023-07-13T08:09:11;788.58;;;504.40;;
7783;SDS011;19359;51.402;6.778;2023-07-13T08:11:38;781.50;;;502.27;;
7783;SDS011;19359;51.402;6.778;2023-07-13T08:14:05;796.60;;;513.65;;
7783;SDS011;19359;51.402;6.778;2023-07-13T08:16:32;796.42;;;515.80;;
7783;SDS011;19359;51.402;6.778;2023-07-13T08:19:00;797.70;;;507.98;;
7783;SDS011;19359;51.402;6.778;2023-07-13T08:21:27;793.50;;;513.33;;
7783;SDS011;19359;51.402;6.778;2023-07-13T08:23:54;804.63;;;520.88;;
7783;SDS011;19359;51.402;6.778;2023-07-13T08:26:22;786.33;;;507.38;;
7783;SDS011;19359;51.402;6.778;2023-07-13T08:28:49;795.22;;;544.03;;
7783;SDS011;19359;51.402;6.778;2023-07-13T08:31:16;795.83;;;543.42;;
7783;SDS011;19359;51.402;6.778;2023-07-13T08:33:43;804.20;;;560.50;;
7783;SDS011;19359;51.402;6.778;2023-07-13T08:36:11;797.72;;;563.42;;
7783;SDS011;19359;51.402;6.778;2023-07-13T08:38:38;791.25;;;536.08;;
7783;SDS011;19359;51.402;6.778;2023-07-13T08:41:10;797.88;;;554.10;;
7783;SDS011;19359;51.402;6.778;2023-07-13T08:43:38;810.10;;;555.10;;
7783;SDS011;19359;51.402;6.778;2023-07-13T08:46:06;796.10;;;539.20;;
7783;SDS011;19359;51.402;6.778;2023-07-13T08:48:36;792.80;;;532.70;;
7783;SDS011;19359;51.402;6.778;2023-07-13T08:51:09;787.40;;;533.90;;
7783;SDS011;19359;51.402;6.778;2023-07-13T08:53:41;789.78;;;538.83;;
7783;SDS011;19359;51.402;6.778;2023-07-13T08:56:11;788.42;;;528.88;;
7783;SDS011;19359;51.402;6.778;2023-07-13T08:58:38;803.88;;;546.78;;
7783;SDS011;19359;51.402;6.778;2023-07-13T09:01:10;789.28;;;540.50;;
7783;SDS011;19359;51.402;6.778;2023-07-13T09:03:40;802.65;;;561.08;;
7783;SDS011;19359;51.402;6.778;2023-07-13T09:06:13;797.05;;;562.17;;
7783;SDS011;19359;51.402;6.778;2023-07-13T09:08:48;794.05;;;554.05;;
7783;SDS011;19359;51.402;6.778;2023-07-13T09:11:23;796.63;;;547.25;;
7783;SDS011;19359;51.402;6.778;2023-07-13T09:13:55;795.17;;;544.67;;
7783;SDS011;19359;51.402;6.778;2023-07-13T09:16:24;792.90;;;543.38;;
7783;SDS011;19359;51.402;6.778;2023-07-13T09:18:51;817.97;;;566.25;;
7783;SDS011;19359;51.402;6.778;2023-07-13T09:21:20;791.70;;;524.72;;
7783;SDS011;19359;51.402;6.778;2023-07-13T09:23:50;798.67;;;525.47;;
7783;SDS011;19359;51.402;6.778;2023-07-13T09:26:21;781.30;;;513.53;;
7783;SDS011;19359;51.402;6.778;2023-07-13T09:28:50;797.63;;;539.80;;
7783;SDS011;19359;51.402;6.778;2023-07-13T09:31:19;798.42;;;534.88;;
7783;SDS011;19359;51.402;6.778;2023-07-13T09:33:47;788.50;;;521.70;;
7783;SDS011;19359;51.402;6.778;2023-07-13T09:36:19;784.15;;;530.00;;
7783;SDS011;19359;51.402;6.778;2023-07-13T09:38:52;788.47;;;533.45;;
7783;SDS011;19359;51.402;6.778;2023-07-13T09:41:28;792.92;;;527.83;;
7783;SDS011;19359;51.402;6.778;2023-07-13T09:44:09;792.85;;;538.13;;
7783;SDS011;19359;51.402;6.778;2023-07-13T09:46:37;783.60;;;517.38;;
7783;SDS011;19359;51.402;6.778;2023-07-13T09:49:05;817.72;;;542.15;;
7783;SDS011;19359;51.402;6.778;2023-07-13T09:51:34;784.40;;;532.45;;
7783;SDS011;19359;51.402;6.778;2023-07-13T09:54:02;822.42;;;568.17;;
7783;SDS011;19359;51.402;6.778;2023-07-13T09:56:29;802.53;;;550.40;;
7783;SDS011;19359;51.402;6.778;2023-07-13T09:58:57;789.90;;;538.60;;
7783;SDS011;19359;51.402;6.778;2023-07-13T10:01:34;788.35;;;536.45;;
7783;SDS011;19359;51.402;6.778;2023-07-13T10:04:02;807.33;;;551.15;;
7783;SDS011;19359;51.402;6.778;2023-07-13T10:06:29;799.03;;;559.50;;
7783;SDS011;19359;51.402;6.778;2023-07-13T10:08:56;801.47;;;554.05;;
7783;SDS011;19359;51.402;6.778;2023-07-13T10:11:26;798.15;;;560.65;;
7783;SDS011;19359;51.402;6.778;2023-07-13T10:13:55;799.28;;;566.13;;
7783;SDS011;19359;51.402;6.778;2023-07-13T10:16:24;800.25;;;567.75;;
7783;SDS011;19359;51.402;6.778;2023-07-13T10:18:53;796.45;;;568.92;;
7783;SDS011;19359;51.402;6.778;2023-07-13T10:21:22;808.00;;;575.50;;
7783;SDS011;19359;51.402;6.778;2023-07-13T10:23:53;792.05;;;562.60;;
7783;SDS011;19359;51.402;6.778;2023-07-13T10:26:23;793.67;;;558.70;;
7783;SDS011;19359;51.402;6.778;2023-07-13T10:28:54;789.33;;;550.78;;
7783;SDS011;19359;51.402;6.778;2023-07-13T10:31:22;790.70;;;552.13;;
7783;SDS011;19359;51.402;6.778;2023-07-13T10:33:50;797.42;;;568.13;;
7783;SDS011;19359;51.402;6.778;2023-07-13T10:36:23;790.38;;;546.72;;
7783;SDS011;19359;51.402;6.778;2023-07-13T10:38:54;810.85;;;564.58;;
7783;SDS011;19359;51.402;6.778;2023-07-13T10:41:23;798.30;;;568.13;;
7783;SDS011;19359;51.402;6.778;2023-07-13T10:43:51;792.53;;;564.95;;
7783;SDS011;19359;51.402;6.778;2023-07-13T10:46:22;793.38;;;564.17;;
7783;SDS011;19359;51.402;6.778;2023-07-13T10:48:52;809.83;;;574.45;;
7783;SDS011;19359;51.402;6.778;2023-07-13T10:51:21;812.78;;;582.97;;
7783;SDS011;19359;51.402;6.778;2023-07-13T10:53:48;800.88;;;581.50;;
7783;SDS011;19359;51.402;6.778;2023-07-13T10:56:38;802.13;;;587.45;;
7783;SDS011;19359;51.402;6.778;2023-07-13T10:59:09;805.50;;;588.47;;
7783;SDS011;19359;51.402;6.778;2023-07-13T11:01:40;819.90;;;603.75;;
7783;SDS011;19359;51.402;6.778;2023-07-13T11:04:08;825.47;;;615.50;;
7783;SDS011;19359;51.402;6.778;2023-07-13T11:06:37;817.60;;;606.90;;
7783;SDS011;19359;51.402;6.778;2023-07-13T11:09:17;810.90;;;601.95;;
7783;SDS011;19359;51.402;6.778;2023-07-13T11:11:46;811.83;;;600.60;;
7783;SDS011;19359;51.402;6.778;2023-07-13T11:14:27;828.70;;;620.47;;
7783;SDS011;19359;51.402;6.778;2023-07-13T11:16:54;823.90;;;636.60;;
7783;SDS011;19359;51.402;6.778;2023-07-13T11:19:37;853.58;;;662.28;;
7783;SDS011;19359;51.402;6.778;2023-07-13T11:22:22;813.10;;;637.90;;
7783;SDS011;19359;51.402;6.778;2023-07-13T11:24:54;824.97;;;653.42;;
7783;SDS011;19359;51.402;6.778;2023-07-13T11:27:27;816.97;;;653.20;;
7783;SDS011;19359;51.402;6.778;2023-07-13T11:30:08;827.25;;;669.30;;
7783;SDS011;19359;51.402;6.778;2023-07-13T11:32:49;809.97;;;646.90;;
7783;SDS011;19359;51.402;6.778;2023-07-13T11:35:23;822.88;;;668.95;;
7783;SDS011;19359;51.402;6.778;2023-07-13T11:37:53;824.28;;;676.70;;
7783;SDS011;19359;51.402;6.778;2023-07-13T11:40:21;838.80;;;678.33;;
7783;SDS011;19359;51.402;6.778;2023-07-13T11:42:52;822.78;;;683.70;;
7783;SDS011;19359;51.402;6.778;2023-07-13T11:45:20;829.38;;;669.15;;
7783;SDS011;19359;51.402;6.778;2023-07-13T11:47:48;821.25;;;678.53;;
7783;SDS011;19359;51.402;6.778;2023-07-13T11:50:19;849.85;;;700.25;;
7783;SDS011;19359;51.402;6.778;2023-07-13T11:52:46;824.50;;;697.53;;
7783;SDS011;19359;51.402;6.778;2023-07-13T11:55:16;831.95;;;692.80;;
7783;SDS011;19359;51.402;6.778;2023-07-13T11:57:44;826.55;;;699.28;;
7783;SDS011;19359;51.402;6.778;2023-07-13T12:00:16;830.63;;;696.88;;
7783;SDS011;19359;51.402;6.778;2023-07-13T12:02:45;831.20;;;707.38;;
7783;SDS011;19359;51.402;6.778;2023-07-13T12:05:14;823.40;;;690.83;;
7783;SDS011;19359;51.402;6.778;2023-07-13T12:07:42;824.20;;;707.10;;
7783;SDS011;19359;51.402;6.778;2023-07-13T12:10:18;826.35;;;707.15;;
7783;SDS011;19359;51.402;6.778;2023-07-13T12:12:46;853.33;;;711.80;;
7783;SDS011;19359;51.402;6.778;2023-07-13T12:15:15;834.10;;;698.47;;
7783;SDS011;19359;51.402;6.778;2023-07-13T12:17:42;833.90;;;695.03;;
7783;SDS011;19359;51.402;6.778;2023-07-13T12:20:14;830.60;;;688.88;;
7783;SDS011;19359;51.402;6.778;2023-07-13T12:22:45;839.55;;;698.20;;
7783;SDS011;19359;51.402;6.778;2023-07-13T12:25:12;826.00;;;691.05;;
7783;SDS011;19359;51.402;6.778;2023-07-13T12:27:40;821.70;;;691.42;;
7783;SDS011;19359;51.402;6.778;2023-07-13T12:30:21;819.20;;;683.05;;
7783;SDS011;19359;51.402;6.778;2023-07-13T12:32:55;826.38;;;698.22;;
7783;SDS011;19359;51.402;6.778;2023-07-13T12:35:23;830.97;;;691.38;;
7783;SDS011;19359;51.402;6.778;2023-07-13T12:37:50;829.58;;;680.70;;
7783;SDS011;19359;51.402;6.778;2023-07-13T12:40:18;813.92;;;666.95;;
7783;SDS011;19359;51.402;6.778;2023-07-13T12:42:48;821.38;;;669.85;;
7783;SDS011;19359;51.402;6.778;2023-07-13T12:45:18;824.47;;;661.58;;
7783;SDS011;19359;51.402;6.778;2023-07-13T12:47:49;828.67;;;663.60;;
7783;SDS011;19359;51.402;6.778;2023-07-13T12:50:18;813.65;;;644.13;;
7783;SDS011;19359;51.402;6.778;2023-07-13T12:52:49;813.13;;;633.25;;
7783;SDS011;19359;51.402;6.778;2023-07-13T12:55:18;819.13;;;637.85;;
7783;SDS011;19359;51.402;6.778;2023-07-13T12:57:47;810.90;;;623.65;;
7783;SDS011;19359;51.402;6.778;2023-07-13T13:00:21;808.92;;;623.03;;
7783;SDS011;19359;51.402;6.778;2023-07-13T13:02:51;816.95;;;623.30;;
7783;SDS011;19359;51.402;6.778;2023-07-13T13:05:19;809.78;;;609.63;;
7783;SDS011;19359;51.402;6.778;2023-07-13T13:07:48;813.50;;;596.63;;
7783;SDS011;19359;51.402;6.778;2023-07-13T13:10:15;793.67;;;583.05;;
7783;SDS011;19359;51.402;6.778;2023-07-13T13:12:42;800.42;;;585.15;;
7783;SDS011;19359;51.402;6.778;2023-07-13T13:15:10;816.05;;;599.15;;
7783;SDS011;19359;51.402;6.778;2023-07-13T13:17:37;814.03;;;621.85;;
7783;SDS011;19359;51.402;6.778;2023-07-13T13:20:11;814.47;;;645.92;;
7783;SDS011;19359;51.402;6.778;2023-07-13T13:22:41;830.30;;;663.72;;
7783;SDS011;19359;51.402;6.778;2023-07-13T13:25:09;822.80;;;675.90;;
7783;SDS011;19359;51.402;6.778;2023-07-13T13:27:36;834.38;;;716.08;;
7783;SDS011;19359;51.402;6.778;2023-07-13T13:30:07;839.58;;;724.85;;
7783;SDS011;19359;51.402;6.778;2023-07-13T13:32:37;842.65;;;744.97;;
7783;SDS011;19359;51.402;6.778;2023-07-13T13:35:05;845.35;;;750.45;;
7783;SDS011;19359;51.402;6.778;2023-07-13T13:37:33;846.50;;;746.17;;
7783;SDS011;19359;51.402;6.778;2023-07-13T13:40:00;845.70;;;747.75;;
7783;SDS011;19359;51.402;6.778;2023-07-13T13:42:29;864.50;;;759.47;;
7783;SDS011;19359;51.402;6.778;2023-07-13T13:44:56;833.92;;;730.72;;
7783;SDS011;19359;51.402;6.778;2023-07-13T13:47:28;833.60;;;724.17;;
7783;SDS011;19359;51.402;6.778;2023-07-13T13:49:56;838.10;;;712.28;;
7783;SDS011;19359;51.402;6.778;2023-07-13T13:52:23;824.40;;;686.03;;
7783;SDS011;19359;51.402;6.778;2023-07-13T13:54:52;833.50;;;687.63;;
7783;SDS011;19359;51.402;6.778;2023-07-13T13:57:21;837.00;;;690.47;;
7783;SDS011;19359;51.402;6.778;2023-07-13T13:59:48;831.47;;;699.47;;
7783;SDS011;19359;51.402;6.778;2023-07-13T14:02:20;837.33;;;716.97;;
7783;SDS011;19359;51.402;6.778;2023-07-13T14:04:50;834.58;;;714.63;;
7783;SDS011;19359;51.402;6.778;2023-07-13T14:07:18;828.72;;;714.05;;
7783;SDS011;19359;51.402;6.778;2023-07-13T14:09:45;826.80;;;721.22;;
7783;SDS011;19359;51.402;6.778;2023-07-13T14:12:13;828.72;;;710.95;;
7783;SDS011;19359;51.402;6.778;2023-07-13T14:14:40;831.92;;;697.95;;
7783;SDS011;19359;51.402;6.778;2023-07-13T14:17:11;821.50;;;692.78;;
7783;SDS011;19359;51.402;6.778;2023-07-13T14:19:46;827.17;;;689.05;;